Malacky, Slovakia

6:31 PM CEST on July 25, 2016 (GMT +0200)
IMALACKY1 | | Change Station

Elev 535 ft 48.44 °N, 17.03 °E | Updated 1 minute ago

Mostly Cloudy
Mostly Cloudy
82.2 °F
Feels Like 87 °F
N
0.0
Wind Variable Wind from SW
Gusts 0.0 mph

Today
High -- | Low -- °F
--% Chance of Precip.
Yesterday
High -- | Low -- °F
Precip. -- in
Pressure 29.98 in
Visibility 6.2 miles
Clouds Few 4500 ft
Few 5000 ft
Mostly Cloudy 30000 ft
Heat Index 87 °F
Dew Point 71 °F
Humidity 70%
Rainfall Not available.
Snow Depth Not available.
5:17 AM 8:37 PM
Waning Gibbous, 64% visible
METAR LOWW 251620Z 24008KT 9999 FEW045 FEW050CB BKN300 27/19 Q1015 NOSIG
Pressure 29.98 in
Visibility 6.2 miles
Clouds Few 4500 ft
Few 5000 ft
Mostly Cloudy 30000 ft
Heat Index 87 °F
Dew Point 71 °F
Humidity 70%
Rainfall Not available.
Snow Depth Not available.
5:17 AM 8:37 PM
Waning Gibbous, 64% visible
METAR LOWW 251620Z 24008KT 9999 FEW045 FEW050CB BKN300 27/19 Q1015 NOSIG

10-Day Weather Forecast

×

Almanac

Astronomy

Jul. 25, 2016 Rise Set
Actual Time
Civil Twilight
Nautical Twilight
Astronomical Twilight
Moon
Length of Visible Light
Length of Day
Tomorrow will be .
, % of the Moon is Illuminated

Today's Extremes

Country Highs Country Lows

Community

WunderPhotos

Upload Photos

1,927,345 photos uploaded!

WunderBlog® & News

Nearby

Air Quality

  Air Quality AQ Index Pollutant
Not available.

Snow Depth

Station Depth Elevation

Earthquake Activity

City Distance Mag. Time & Date
Minimum magnitude displayed is 2.5.

Coastal Water Temperatures

Place Temperature

Stations

Nearby Weather Stations

Station Location Temp. Windchill Dew Point Humidity Wind Precip. Elev Updated Type